createdAt,value
2022-08-08T00:02:30.103Z,3.07
2022-08-08T00:04:53.132Z,3.70
2022-08-08T00:07:37.978Z,4.47
2022-08-08T00:10:12.781Z,2.77
2022-08-08T00:12:56.659Z,2.20
2022-08-08T00:15:57.645Z,2.20
2022-08-08T00:18:26.818Z,4.93
2022-08-08T00:20:58.549Z,3.50
2022-08-08T00:23:47.401Z,2.07
2022-08-08T00:26:29.141Z,4.27
2022-08-08T00:29:07.818Z,3.90
2022-08-08T00:32:21.338Z,1.83
2022-08-08T00:35:18.583Z,2.40
2022-08-08T00:38:03.996Z,2.03
2022-08-08T00:41:11.864Z,1.93
2022-08-08T00:44:06.332Z,2.97
2022-08-08T00:47:37.079Z,3.10
2022-08-08T00:51:11.501Z,2.30
2022-08-08T00:54:28.626Z,2.33
2022-08-08T00:57:36.092Z,2.40
2022-08-08T01:00:12.525Z,3.80
2022-08-08T01:04:00.940Z,2.20
2022-08-08T01:07:08.219Z,6.97
2022-08-08T01:10:35.946Z,2.67
2022-08-08T01:14:03.327Z,2.70
2022-08-08T01:17:20.106Z,2.60
2022-08-08T01:20:44.376Z,4.13
2022-08-08T01:24:16.366Z,2.73
2022-08-08T01:27:07.060Z,1.63
2022-08-08T01:30:05.401Z,1.70
2022-08-08T01:33:27.496Z,3.83
2022-08-08T01:36:26.225Z,2.83
2022-08-08T01:39:27.859Z,2.33
2022-08-08T01:42:09.309Z,2.07
2022-08-08T01:45:10.044Z,2.00
2022-08-08T01:48:23.599Z,2.33
2022-08-08T01:51:31.612Z,3.60
2022-08-08T01:55:15.630Z,3.60
2022-08-08T01:57:17.325Z,3.17
2022-08-08T02:00:13.896Z,3.73
2022-08-08T02:03:55.148Z,2.90
2022-08-08T02:06:04.265Z,4.80
2022-08-08T02:08:50.808Z,3.07
2022-08-08T02:11:52.765Z,2.10
2022-08-08T02:14:33.786Z,3.63
2022-08-08T02:17:20.467Z,2.10
2022-08-08T02:20:09.447Z,2.00
2022-08-08T02:22:55.163Z,2.57
2022-08-08T02:25:33.169Z,2.30
2022-08-08T02:28:25.955Z,2.47
2022-08-08T02:31:31.234Z,3.77
2022-08-08T02:34:14.813Z,1.90
2022-08-08T02:36:59.989Z,3.23
2022-08-08T02:39:59.800Z,3.20
2022-08-08T02:44:44.922Z,2.43
2022-08-08T02:46:31.255Z,2.10
2022-08-08T02:49:50.811Z,3.80
2022-08-08T02:52:52.206Z,3.23
2022-08-08T02:55:43.641Z,3.03
2022-08-08T02:58:53.668Z,2.67
2022-08-08T03:05:03.065Z,3.83
2022-08-08T03:08:10.988Z,3.07
2022-08-08T03:11:13.985Z,2.07
2022-08-08T03:15:57.619Z,2.17
2022-08-08T03:17:09.769Z,2.57
2022-08-08T03:19:51.942Z,2.87
2022-08-08T03:22:38.193Z,2.27
2022-08-08T03:25:18.821Z,3.47
2022-08-08T03:27:58.578Z,5.10
2022-08-08T03:30:32.043Z,3.63
2022-08-08T03:33:56.233Z,2.70
2022-08-08T03:36:19.585Z,3.23
2022-08-08T03:38:55.673Z,2.87
2022-08-08T03:42:12.965Z,6.30
2022-08-08T03:44:25.475Z,2.53
2022-08-08T03:46:55.524Z,3.37
2022-08-08T03:49:58.301Z,3.67
2022-08-08T03:52:18.044Z,2.97
2022-08-08T03:55:01.565Z,3.40
2022-08-08T03:58:31.445Z,4.70
2022-08-08T04:00:30.606Z,2.90
2022-08-08T04:03:11.569Z,2.97
2022-08-08T04:05:47.976Z,3.27
2022-08-08T04:08:33.860Z,4.47
2022-08-08T04:11:11.497Z,2.93
2022-08-08T04:14:03.043Z,3.07
2022-08-08T04:16:41.079Z,3.43
2022-08-08T04:19:23.923Z,3.13
2022-08-08T04:21:58.166Z,4.37
2022-08-08T04:24:30.954Z,3.97
2022-08-08T04:27:10.439Z,4.10
2022-08-08T04:30:00.733Z,3.87
2022-08-08T04:32:38.863Z,3.07
2022-08-08T04:35:13.477Z,3.53
2022-08-08T04:37:44.706Z,2.87
2022-08-08T04:40:19.276Z,3.30
2022-08-08T04:43:00.805Z,4.63
2022-08-08T04:45:39.360Z,5.00
2022-08-08T04:48:10.026Z,3.10
2022-08-08T04:50:46.006Z,3.00
2022-08-08T04:54:27.428Z,4.10
2022-08-08T04:56:10.296Z,3.93
2022-08-08T04:58:39.067Z,5.70
2022-08-08T05:01:11.231Z,5.40
2022-08-08T05:04:09.746Z,4.10
2022-08-08T05:06:42.912Z,3.63
2022-08-08T05:09:13.155Z,3.97
2022-08-08T05:11:47.603Z,3.87
2022-08-08T05:14:25.137Z,5.47
2022-08-08T05:17:01.729Z,3.57
2022-08-08T05:20:04.467Z,5.80
2022-08-08T05:22:34.549Z,4.97
2022-08-08T05:25:04.142Z,3.92
2022-08-08T05:27:33.110Z,3.90
2022-08-08T05:30:03.630Z,4.97
2022-08-08T05:32:41.574Z,3.60
2022-08-08T05:35:15.527Z,3.70
2022-08-08T05:37:54.634Z,5.03
2022-08-08T05:40:48.850Z,5.97
2022-08-08T05:43:39.680Z,6.00
2022-08-08T05:46:14.621Z,2.75
2022-08-08T05:48:52.295Z,3.83
2022-08-08T05:51:25.812Z,5.13
2022-08-08T05:54:28.137Z,3.35
2022-08-08T05:56:48.404Z,4.25
2022-08-08T06:00:00.683Z,3.47
2022-08-08T06:02:35.178Z,4.18
2022-08-08T06:05:32.996Z,2.40
2022-08-08T06:08:02.433Z,3.88
2022-08-08T06:10:41.354Z,4.70
2022-08-08T06:13:12.523Z,3.83
2022-08-08T06:15:50.668Z,3.45
2022-08-08T06:18:27.672Z,2.00
2022-08-08T06:21:03.749Z,3.42
2022-08-08T06:24:01.889Z,5.22
2022-08-08T06:26:44.955Z,2.75
2022-08-08T06:29:59.719Z,3.60
2022-08-08T06:32:18.434Z,1.70
2022-08-08T06:35:12.316Z,3.85
2022-08-08T06:37:56.136Z,4.55
2022-08-08T06:40:33.304Z,3.03
2022-08-08T06:43:11.317Z,2.47
2022-08-08T06:45:59.703Z,3.50
2022-08-08T06:48:28.263Z,1.90
2022-08-08T06:51:02.383Z,3.97
2022-08-08T06:53:50.379Z,3.20
2022-08-08T06:56:26.316Z,4.60
2022-08-08T06:58:55.684Z,3.20
2022-08-08T07:02:26.482Z,2.13
2022-08-08T07:04:38.778Z,2.88
2022-08-08T07:07:12.589Z,3.92
2022-08-08T07:10:00.258Z,5.30
2022-08-08T07:12:42.913Z,4.82
2022-08-08T07:15:32.220Z,6.00
2022-08-08T07:18:37.113Z,3.70
2022-08-08T07:21:05.132Z,1.98
2022-08-08T07:23:57.635Z,1.83
2022-08-08T07:26:41.139Z,1.60
2022-08-08T07:29:58.726Z,3.00
2022-08-08T07:32:01.805Z,2.65
2022-08-08T07:34:32.522Z,3.25
2022-08-08T07:37:11.558Z,2.33
2022-08-08T07:39:56.241Z,5.07
2022-08-08T07:42:33.172Z,3.70
2022-08-08T07:45:05.030Z,3.55
2022-08-08T07:47:39.244Z,4.72
2022-08-08T07:50:11.340Z,4.50
2022-08-08T07:52:45.096Z,2.17
2022-08-08T07:55:29.059Z,1.98
2022-08-08T07:58:14.024Z,2.83
2022-08-08T08:00:49.366Z,2.80
2022-08-08T08:03:28.411Z,3.20
2022-08-08T08:06:02.107Z,2.08
2022-08-08T08:08:41.827Z,3.60
2022-08-08T08:11:23.458Z,4.20
2022-08-08T08:14:07.622Z,2.33
2022-08-08T08:16:48.790Z,2.95
2022-08-08T08:19:22.842Z,1.52
2022-08-08T08:21:57.622Z,2.03
2022-08-08T08:24:46.487Z,3.53
2022-08-08T08:27:17.781Z,2.22
2022-08-08T08:29:51.887Z,2.10
2022-08-08T08:32:31.946Z,2.55
2022-08-08T08:35:10.222Z,2.45
2022-08-08T08:38:13.013Z,2.33
2022-08-08T08:40:34.821Z,4.53
2022-08-08T08:43:08.966Z,2.50
2022-08-08T08:45:46.027Z,2.72
2022-08-08T08:48:16.311Z,3.45
2022-08-08T08:50:52.936Z,3.55
2022-08-08T08:53:54.664Z,3.42
2022-08-08T08:56:24.257Z,4.68
2022-08-08T08:58:58.798Z,1.75
2022-08-08T09:01:36.921Z,3.97
2022-08-08T09:04:31.845Z,1.08
2022-08-08T09:07:13.839Z,1.23
2022-08-08T09:09:55.189Z,2.15
2022-08-08T09:12:29.881Z,2.85
2022-08-08T09:15:01.120Z,2.20
2022-08-08T09:17:41.610Z,4.32
2022-08-08T09:21:56.925Z,5.38
2022-08-08T09:23:17.253Z,2.40
2022-08-08T09:25:54.935Z,1.73
2022-08-08T09:28:38.628Z,1.95
2022-08-08T09:31:16.658Z,1.83
2022-08-08T09:34:31.513Z,4.15
2022-08-08T09:36:51.458Z,3.47
2022-08-08T09:39:44.290Z,4.82
2022-08-08T09:42:21.689Z,2.47
2022-08-08T09:45:04.118Z,1.45
2022-08-08T09:48:04.778Z,3.05
2022-08-08T09:50:34.575Z,1.75
2022-08-08T09:53:23.826Z,2.72
2022-08-08T09:56:04.619Z,2.70
2022-08-08T09:58:41.785Z,3.55
2022-08-08T10:01:59.972Z,4.03
2022-08-08T10:04:22.405Z,3.95
2022-08-08T10:07:07.462Z,1.88
2022-08-08T10:10:00.221Z,6.38
2022-08-08T10:12:38.777Z,3.13
2022-08-08T10:15:24.190Z,5.75
2022-08-08T10:18:05.856Z,2.85
2022-08-08T10:20:51.181Z,2.20
2022-08-08T10:23:46.069Z,2.63
2022-08-08T10:26:30.410Z,5.38
2022-08-08T10:29:05.407Z,3.63
2022-08-08T10:31:49.274Z,1.33
2022-08-08T10:34:21.196Z,5.97
2022-08-08T10:36:51.212Z,3.65
2022-08-08T10:39:31.469Z,4.18
2022-08-08T10:42:16.654Z,1.77
2022-08-08T10:44:46.132Z,2.40
2022-08-08T10:47:21.139Z,1.85
2022-08-08T10:50:00.707Z,1.65
2022-08-08T10:52:33.762Z,2.47
2022-08-08T10:55:06.791Z,1.50
2022-08-08T10:57:45.073Z,1.52
2022-08-08T11:00:23.389Z,1.98
2022-08-08T11:02:54.733Z,2.55
2022-08-08T11:05:23.922Z,1.70
2022-08-08T11:08:31.218Z,2.47
2022-08-08T11:10:45.511Z,4.20
2022-08-08T11:13:29.953Z,3.20
2022-08-08T11:16:07.392Z,2.88
2022-08-08T11:18:39.987Z,2.95
2022-08-08T11:21:10.638Z,2.72
2022-08-08T11:24:02.169Z,2.30
2022-08-08T11:26:38.139Z,2.85
2022-08-08T11:29:09.231Z,2.60
2022-08-08T11:31:48.121Z,2.15
2022-08-08T11:34:25.751Z,1.83
2022-08-08T11:37:15.198Z,3.40
2022-08-08T11:39:57.771Z,3.70
2022-08-08T11:42:31.053Z,3.30
2022-08-08T11:45:00.448Z,2.85
2022-08-08T11:47:29.026Z,4.55
2022-08-08T11:50:13.063Z,2.10
2022-08-08T11:52:47.202Z,2.53
2022-08-08T11:55:18.821Z,3.22
2022-08-08T11:57:51.709Z,7.25
2022-08-08T12:00:23.321Z,2.45
2022-08-08T12:02:54.844Z,1.75
2022-08-08T12:05:33.674Z,2.85
2022-08-08T12:08:02.506Z,2.05
2022-08-08T12:10:34.011Z,1.35
2022-08-08T12:13:09.727Z,2.13
2022-08-08T12:15:47.234Z,4.35
2022-08-08T12:18:24.801Z,2.00
2022-08-08T12:20:54.888Z,2.22
2022-08-08T12:23:40.292Z,1.95
2022-08-08T12:26:27.426Z,5.20
2022-08-08T12:29:36.175Z,1.38
2022-08-08T12:32:13.526Z,2.90
2022-08-08T12:34:49.006Z,1.33
2022-08-08T12:37:21.981Z,2.63
2022-08-08T12:40:00.495Z,1.40
2022-08-08T12:42:33.587Z,2.03
2022-08-08T12:45:53.755Z,1.88
2022-08-08T12:48:10.334Z,3.47
2022-08-08T12:50:57.457Z,2.45
2022-08-08T12:53:30.239Z,2.50
2022-08-08T12:56:18.349Z,1.63
2022-08-08T12:58:50.976Z,3.08
2022-08-08T13:01:24.613Z,2.75
2022-08-08T13:04:18.480Z,1.50
2022-08-08T13:06:56.155Z,1.70
2022-08-08T13:09:43.198Z,2.55
2022-08-08T13:12:32.619Z,2.58
2022-08-08T13:15:03.856Z,1.33
2022-08-08T13:18:09.367Z,1.83
2022-08-08T13:20:25.986Z,1.13
2022-08-08T13:23:31.332Z,1.77
2022-08-08T13:25:50.362Z,1.92
2022-08-08T13:28:32.122Z,3.63
2022-08-08T13:31:01.954Z,3.53
2022-08-08T13:33:42.723Z,2.13
2022-08-08T13:36:12.446Z,2.25
2022-08-08T13:38:42.796Z,2.33
2022-08-08T13:41:15.873Z,3.38
2022-08-08T13:43:47.652Z,4.22
2022-08-08T13:46:26.360Z,3.10
2022-08-08T13:50:34.786Z,2.15
2022-08-08T13:51:55.337Z,1.63
2022-08-08T13:54:31.158Z,0.95
2022-08-08T13:57:12.378Z,3.97
2022-08-08T13:59:48.160Z,1.35
2022-08-08T14:02:22.366Z,1.35
2022-08-08T14:05:09.230Z,4.45
2022-08-08T14:07:52.965Z,2.22
2022-08-08T14:10:33.434Z,3.03
2022-08-08T14:13:30.764Z,3.63
2022-08-08T14:16:04.516Z,3.63
2022-08-08T14:18:52.046Z,1.77
2022-08-08T14:21:39.552Z,3.92
2022-08-08T14:24:09.629Z,2.25
2022-08-08T14:26:45.849Z,1.30
2022-08-08T14:29:28.052Z,2.55
2022-08-08T14:32:08.765Z,2.67
2022-08-08T14:34:42.382Z,1.08
2022-08-08T14:37:16.894Z,1.73
2022-08-08T14:39:53.875Z,1.02
2022-08-08T14:42:35.552Z,2.65
2022-08-08T14:45:10.046Z,1.42
2022-08-08T14:47:51.470Z,2.35
2022-08-08T14:50:39.290Z,1.40
2022-08-08T14:53:14.426Z,1.38
2022-08-08T14:55:43.800Z,2.00
2022-08-08T14:58:16.472Z,1.73
2022-08-08T15:00:49.420Z,3.28
2022-08-08T15:03:18.424Z,1.55
2022-08-08T15:05:53.906Z,2.38
2022-08-08T15:08:35.620Z,1.48
2022-08-08T15:11:11.437Z,2.88
2022-08-08T15:14:01.384Z,2.28
2022-08-08T15:16:34.651Z,2.35
2022-08-08T15:19:04.860Z,2.05
2022-08-08T15:21:33.428Z,1.50
2022-08-08T15:24:12.607Z,2.88
2022-08-08T15:26:52.629Z,1.10
2022-08-08T15:29:24.415Z,1.67
2022-08-08T15:32:17.494Z,2.30
2022-08-08T15:34:43.059Z,1.58
2022-08-08T15:37:13.309Z,1.35
2022-08-08T15:39:43.363Z,1.90
2022-08-08T15:42:17.970Z,1.23
2022-08-08T15:45:01.323Z,1.52
2022-08-08T15:47:32.054Z,3.05
2022-08-08T15:50:01.814Z,1.10
2022-08-08T15:52:31.380Z,1.90
2022-08-08T15:55:03.435Z,2.60
2022-08-08T15:57:35.689Z,2.08
2022-08-08T16:00:27.341Z,1.38
2022-08-08T16:02:58.001Z,1.23
2022-08-08T16:05:35.957Z,1.05
2022-08-08T16:08:19.938Z,2.97
2022-08-08T16:13:09.722Z,5.78
2022-08-08T16:13:46.131Z,1.63
2022-08-08T16:16:17.355Z,2.00
2022-08-08T16:18:57.301Z,1.88
2022-08-08T16:21:29.506Z,2.10
2022-08-08T16:23:59.274Z,2.47
2022-08-08T16:26:34.273Z,2.60
2022-08-08T16:29:09.629Z,1.45
2022-08-08T16:31:42.173Z,2.30
2022-08-08T16:34:19.279Z,1.73
2022-08-08T16:36:50.306Z,1.10
2022-08-08T16:39:48.986Z,2.42
2022-08-08T16:42:18.038Z,1.52
2022-08-08T16:44:54.296Z,1.55
2022-08-08T16:47:40.025Z,3.63
2022-08-08T16:50:14.067Z,1.40
2022-08-08T16:55:05.810Z,5.78
2022-08-08T16:55:53.125Z,2.08
2022-08-08T16:58:25.675Z,2.05
2022-08-08T17:00:58.942Z,2.33
2022-08-08T17:04:00.483Z,7.03
2022-08-08T17:06:36.870Z,3.35
2022-08-08T17:09:05.916Z,1.95
2022-08-08T17:11:39.475Z,1.05
2022-08-08T17:14:27.377Z,1.13
2022-08-08T17:17:03.760Z,3.33
2022-08-08T17:19:40.958Z,2.63
2022-08-08T17:22:10.917Z,1.83
2022-08-08T17:24:40.997Z,3.70
2022-08-08T17:27:10.526Z,1.40
2022-08-08T17:29:43.755Z,1.75
2022-08-08T17:32:28.919Z,1.98
2022-08-08T17:35:52.903Z,2.10
2022-08-08T17:37:53.332Z,1.77
2022-08-08T17:40:22.313Z,1.65
2022-08-08T17:42:51.879Z,6.40
2022-08-08T17:45:23.982Z,1.10
2022-08-08T17:47:54.728Z,3.92
2022-08-08T17:50:24.016Z,1.88
2022-08-08T17:52:53.596Z,3.28
2022-08-08T17:56:06.352Z,2.72
2022-08-08T17:58:11.873Z,1.85
2022-08-08T18:00:42.313Z,1.50
2022-08-08T18:03:18.639Z,2.63
2022-08-08T18:05:51.435Z,3.42
2022-08-08T18:08:25.018Z,5.43
2022-08-08T18:11:14.949Z,3.40
2022-08-08T18:13:46.057Z,1.92
2022-08-08T18:16:22.921Z,2.00
2022-08-08T18:18:54.677Z,1.27
2022-08-08T18:21:58.980Z,1.58
2022-08-08T18:24:19.754Z,3.33
2022-08-08T18:26:54.542Z,2.10
2022-08-08T18:29:30.184Z,2.17
2022-08-08T18:32:06.733Z,2.67
2022-08-08T18:34:36.762Z,3.38
2022-08-08T18:37:09.288Z,2.15
2022-08-08T18:39:41.410Z,2.72
2022-08-08T18:42:16.497Z,3.55
2022-08-08T18:44:55.872Z,3.17
2022-08-08T18:47:31.330Z,4.38
2022-08-08T18:50:02.958Z,2.70
2022-08-08T18:52:34.944Z,2.22
2022-08-08T18:55:10.123Z,1.63
2022-08-08T18:57:44.733Z,2.88
2022-08-08T19:00:19.362Z,3.92
2022-08-08T19:02:56.526Z,4.78
2022-08-08T19:05:30.203Z,5.10
2022-08-08T19:08:01.189Z,3.30
2022-08-08T19:10:31.535Z,6.93
2022-08-08T19:13:00.474Z,15.48
2022-08-08T19:15:33.700Z,17.98
2022-08-08T19:18:33.528Z,21.13
2022-08-08T19:20:55.974Z,17.65
2022-08-08T19:23:24.425Z,16.77
2022-08-08T19:26:20.231Z,9.27
2022-08-08T19:28:44.695Z,9.40
2022-08-08T19:31:16.928Z,12.55
2022-08-08T19:34:04.368Z,12.07
2022-08-08T19:36:36.883Z,15.73
2022-08-08T19:39:07.087Z,19.92
2022-08-08T19:41:38.583Z,21.08
2022-08-08T19:44:12.562Z,21.70
2022-08-08T19:46:41.949Z,14.10
2022-08-08T19:49:14.907Z,17.65
2022-08-08T19:51:45.032Z,15.73
2022-08-08T19:54:14.024Z,15.95
2022-08-08T19:56:49.049Z,10.93
2022-08-08T19:59:22.145Z,7.43
2022-08-08T20:02:02.638Z,7.57
2022-08-08T20:04:34.359Z,4.68
2022-08-08T20:08:26.758Z,7.32
2022-08-08T20:09:55.649Z,5.65
2022-08-08T20:12:34.421Z,7.32
2022-08-08T20:15:14.378Z,5.85
2022-08-08T20:17:47.593Z,5.65
2022-08-08T20:20:22.321Z,4.88
2022-08-08T20:22:54.239Z,4.15
2022-08-08T20:25:29.981Z,5.15
2022-08-08T20:28:07.022Z,4.13
2022-08-08T20:30:55.840Z,4.18
2022-08-08T20:35:58.250Z,3.70
2022-08-08T20:38:32.433Z,2.75
2022-08-08T20:41:16.895Z,3.42
2022-08-08T20:43:49.627Z,3.20
2022-08-08T20:46:21.067Z,6.82
2022-08-08T20:48:58.488Z,2.83
2022-08-08T20:51:31.768Z,4.47
2022-08-08T20:54:03.615Z,5.35
2022-08-08T20:57:05.719Z,4.72
2022-08-08T20:59:31.356Z,3.90
2022-08-08T21:02:06.117Z,4.03
2022-08-08T21:04:37.168Z,2.70
2022-08-08T21:07:08.507Z,3.10
2022-08-08T21:10:01.627Z,6.40
2022-08-08T21:12:33.107Z,4.25
2022-08-08T21:15:06.650Z,2.65
2022-08-08T21:17:36.969Z,2.88
2022-08-08T21:20:06.959Z,3.30
2022-08-08T21:22:37.849Z,2.88
2022-08-08T21:25:10.542Z,4.93
2022-08-08T21:28:09.222Z,4.65
2022-08-08T21:30:30.820Z,2.28
2022-08-08T21:32:59.501Z,2.70
2022-08-08T21:36:16.280Z,4.28
2022-08-08T21:38:18.461Z,3.90
2022-08-08T21:40:55.449Z,2.17
2022-08-08T21:43:33.350Z,3.13
2022-08-08T21:48:06.449Z,4.22
2022-08-08T21:48:53.609Z,4.72
2022-08-08T21:54:27.333Z,3.05
2022-08-08T21:54:31.359Z,3.97
2022-08-08T21:57:06.219Z,4.45
2022-08-08T22:00:01.664Z,3.03
2022-08-08T22:02:24.267Z,3.63
2022-08-08T22:04:56.088Z,4.82
2022-08-08T22:07:39.982Z,3.20
2022-08-08T22:10:18.365Z,4.25
2022-08-08T22:13:17.140Z,5.20
2022-08-08T22:15:58.482Z,4.65
2022-08-08T22:18:29.962Z,2.20
2022-08-08T22:21:01.647Z,5.80
2022-08-08T22:23:41.063Z,5.35
2022-08-08T22:26:29.484Z,4.57
2022-08-08T22:29:14.347Z,3.17
2022-08-08T22:31:58.265Z,4.25
2022-08-08T22:34:33.200Z,4.30
2022-08-08T22:37:14.758Z,4.60
2022-08-08T22:40:01.471Z,5.65
2022-08-08T22:42:34.862Z,4.65
2022-08-08T22:45:05.413Z,8.00
2022-08-08T22:47:47.277Z,2.80
2022-08-08T22:50:25.970Z,6.13
2022-08-08T22:53:22.396Z,4.70
2022-08-08T22:55:59.007Z,7.35
2022-08-08T22:58:34.675Z,5.75
2022-08-08T23:01:16.210Z,3.17
2022-08-08T23:03:54.999Z,5.53
2022-08-08T23:06:24.728Z,3.10
2022-08-08T23:08:55.542Z,5.00
2022-08-08T23:11:31.221Z,2.60
2022-08-08T23:14:20.995Z,5.30
2022-08-08T23:16:59.241Z,3.63
2022-08-08T23:19:32.154Z,3.47
2022-08-08T23:22:04.494Z,5.80
2022-08-08T23:24:36.365Z,2.50
2022-08-08T23:27:06.476Z,4.90
2022-08-08T23:29:36.795Z,4.28
2022-08-08T23:32:06.563Z,2.35
2022-08-08T23:34:39.959Z,3.03
2022-08-08T23:37:18.217Z,3.88
2022-08-08T23:39:55.581Z,3.92
2022-08-08T23:42:26.456Z,5.07
2022-08-08T23:44:57.830Z,7.03
2022-08-08T23:49:03.017Z,4.63
2022-08-08T23:50:30.598Z,3.38
2022-08-08T23:53:03.609Z,4.88
2022-08-08T23:55:42.102Z,3.17
2022-08-08T23:58:37.738Z,3.05
